EVVA

Ventspils International Airport

Ventspils, Latvia
METAR EVVA 160150Z AUTO 08004KT 9999 OVC021 M01/M03 Q1031
Observed Flight Rules
Dec-16 @ 01:50 UTC (20 minutes ago) Marginal Visual Flight Rules
Wind Visibility Clouds
80° at 4 knots 10,000+ meters
  • Overcast at 2,100' AGL
Temperatures Readings
Current -1°C / 30°F
Dewpoint -3°C / 27°F
Humidity 86%
Altimeter 30.44" Hg
Pressure 1031 hPa
Elevation 6
METAR EVVA 160150Z AUTO 08004KT 9999 OVC021 M01/M03 Q1031
Observed Flight Rules
Dec-16 @ 01:50 UTC
(20 minutes ago)
MVFR
Wind Visibility
80° at 4 knots 10,000+ meters
Clouds
  • Overcast at 2,100' AGL
Temperature Dewpoint
-1°C / 30°F -3°C / 27°F
Humidity Altimeter Pressure
86% 30.44" Hg 1031 hPa